createdAt,value
2023-01-30T00:01:29.655Z,7.72
2023-01-30T00:03:56.782Z,8.23
2023-01-30T00:06:24.734Z,7.10
2023-01-30T00:08:51.783Z,7.05
2023-01-30T00:11:20.330Z,7.78
2023-01-30T00:13:50.577Z,7.97
2023-01-30T00:16:19.091Z,7.50
2023-01-30T00:18:46.085Z,7.45
2023-01-30T00:21:15.445Z,7.70
2023-01-30T00:23:42.855Z,8.40
2023-01-30T00:26:11.150Z,7.50
2023-01-30T00:28:39.590Z,8.40
2023-01-30T00:31:07.357Z,8.63
2023-01-30T00:33:36.429Z,9.10
2023-01-30T00:36:03.558Z,8.45
2023-01-30T00:38:30.700Z,8.70
2023-01-30T00:40:57.417Z,9.25
2023-01-30T00:43:43.003Z,8.43
2023-01-30T00:47:01.465Z,8.50
2023-01-30T00:49:28.373Z,8.63
2023-01-30T00:51:55.222Z,8.70
2023-01-30T00:54:21.970Z,9.02
2023-01-30T00:56:48.773Z,9.07
2023-01-30T00:59:15.533Z,9.07
2023-01-30T01:01:42.314Z,9.48
2023-01-30T01:04:10.563Z,9.75
2023-01-30T01:06:38.632Z,9.93
2023-01-30T01:09:05.917Z,9.35
2023-01-30T01:11:32.980Z,10.10
2023-01-30T01:14:02.338Z,10.18
2023-01-30T01:16:31.864Z,10.05
2023-01-30T01:18:59.556Z,10.13
2023-01-30T01:21:26.779Z,10.02
2023-01-30T01:23:57.585Z,10.07
2023-01-30T01:26:24.826Z,9.43
2023-01-30T01:28:58.798Z,9.48
2023-01-30T01:33:52.967Z,8.90
2023-01-30T01:36:49.662Z,9.30
2023-01-30T01:39:06.944Z,10.23
2023-01-30T01:41:33.836Z,10.88
2023-01-30T01:44:13.355Z,10.55
2023-01-30T01:46:53.388Z,9.98
2023-01-30T01:49:27.971Z,10.85
2023-01-30T01:52:05.162Z,10.93
2023-01-30T01:54:42.440Z,10.85
2023-01-30T01:57:20.788Z,10.52
2023-01-30T01:59:54.050Z,10.57
2023-01-30T02:02:21.569Z,10.65
2023-01-30T02:05:06.403Z,10.00
2023-01-30T02:07:51.691Z,11.52
2023-01-30T02:10:32.595Z,11.38
2023-01-30T02:12:59.379Z,11.23
2023-01-30T02:15:26.152Z,11.75
2023-01-30T02:17:52.948Z,12.25
2023-01-30T02:21:02.209Z,11.25
2023-01-30T02:24:06.824Z,11.32
2023-01-30T02:26:51.894Z,12.60
2023-01-30T02:30:02.130Z,11.38
2023-01-30T02:32:55.363Z,10.90
2023-01-30T02:35:55.731Z,11.38
2023-01-30T02:39:26.615Z,10.52
2023-01-30T02:42:21.720Z,12.15
2023-01-30T02:45:23.802Z,12.38
2023-01-30T02:48:14.991Z,10.73
2023-01-30T02:50:57.179Z,11.77
2023-01-30T02:53:24.228Z,11.23
2023-01-30T02:55:51.019Z,11.40
2023-01-30T02:58:24.421Z,11.77
2023-01-30T03:02:05.480Z,11.57
2023-01-30T03:05:04.398Z,10.90
2023-01-30T03:07:48.233Z,10.50
2023-01-30T03:10:45.060Z,11.40
2023-01-30T03:13:24.303Z,11.50
2023-01-30T03:16:00.064Z,10.40
2023-01-30T03:18:26.882Z,10.88
2023-01-30T03:20:54.147Z,11.13
2023-01-30T03:23:21.062Z,10.95
2023-01-30T03:25:49.076Z,11.88
2023-01-30T03:28:21.252Z,12.52
2023-01-30T03:30:48.155Z,11.43
2023-01-30T03:33:14.925Z,10.90
2023-01-30T03:35:43.257Z,11.35
2023-01-30T03:38:10.943Z,11.75
2023-01-30T03:40:37.988Z,11.40
2023-01-30T03:43:05.218Z,11.85
2023-01-30T03:45:32.026Z,11.75
2023-01-30T03:47:58.811Z,11.95
2023-01-30T03:50:25.707Z,11.23
2023-01-30T03:52:52.535Z,11.25
2023-01-30T03:55:19.807Z,11.02
2023-01-30T03:57:47.103Z,10.43
2023-01-30T04:00:14.980Z,10.57
2023-01-30T04:02:41.931Z,11.27
2023-01-30T04:05:08.841Z,9.75
2023-01-30T04:07:35.589Z,10.70
2023-01-30T04:10:02.336Z,11.45
2023-01-30T04:12:29.169Z,11.45
2023-01-30T04:14:56.098Z,11.10
2023-01-30T04:17:22.951Z,12.10
2023-01-30T04:19:49.924Z,10.02
2023-01-30T04:22:16.807Z,10.80
2023-01-30T04:24:43.563Z,10.88
2023-01-30T04:27:10.385Z,10.23
2023-01-30T04:29:37.119Z,10.90
2023-01-30T04:32:04.016Z,10.38
2023-01-30T04:34:31.011Z,10.20
2023-01-30T04:36:57.775Z,10.63
2023-01-30T04:39:24.513Z,10.35
2023-01-30T04:41:51.750Z,10.52
2023-01-30T04:44:18.634Z,10.65
2023-01-30T04:46:45.736Z,10.98
2023-01-30T04:49:12.984Z,10.77
2023-01-30T04:51:39.751Z,10.07
2023-01-30T04:54:06.710Z,11.45
2023-01-30T04:56:33.477Z,10.18
2023-01-30T04:59:00.320Z,10.13
2023-01-30T05:01:34.656Z,11.20
2023-01-30T05:04:02.527Z,10.13
2023-01-30T05:06:31.027Z,10.30
2023-01-30T05:08:58.531Z,10.52
2023-01-30T05:11:28.565Z,10.02
2023-01-30T05:13:56.056Z,11.02
2023-01-30T05:16:23.723Z,10.60
2023-01-30T05:18:51.235Z,10.23
2023-01-30T05:21:26.033Z,10.88
2023-01-30T05:23:53.696Z,9.70
2023-01-30T05:26:21.316Z,10.48
2023-01-30T05:28:57.000Z,10.65
2023-01-30T05:31:24.567Z,10.52
2023-01-30T05:33:52.547Z,10.60
2023-01-30T05:36:22.071Z,10.27
2023-01-30T05:38:48.844Z,9.30
2023-01-30T05:41:17.206Z,9.75
2023-01-30T05:43:44.717Z,9.82
2023-01-30T05:46:13.643Z,9.70
2023-01-30T05:48:40.587Z,9.85
2023-01-30T05:51:19.135Z,10.25
2023-01-30T05:53:46.613Z,10.00
2023-01-30T05:56:13.653Z,10.10
2023-01-30T05:58:40.826Z,9.88
2023-01-30T06:01:11.604Z,9.85
2023-01-30T06:03:39.322Z,10.13
2023-01-30T06:06:07.378Z,9.70
2023-01-30T06:08:34.309Z,9.63
2023-01-30T06:11:08.502Z,10.15
2023-01-30T06:13:35.976Z,10.07
2023-01-30T06:16:03.382Z,8.77
2023-01-30T06:18:30.245Z,9.57
2023-01-30T06:20:57.018Z,8.75
2023-01-30T06:23:23.996Z,10.55
2023-01-30T06:25:53.144Z,9.55
2023-01-30T06:28:20.604Z,9.63
2023-01-30T06:30:47.578Z,10.52
2023-01-30T06:33:14.907Z,9.55
2023-01-30T06:35:43.367Z,8.98
2023-01-30T06:38:11.536Z,8.93
2023-01-30T06:40:39.803Z,10.02
2023-01-30T06:43:07.368Z,8.90
2023-01-30T06:45:34.178Z,8.90
2023-01-30T06:48:00.957Z,10.00
2023-01-30T06:50:29.841Z,10.23
2023-01-30T06:52:57.714Z,9.48
2023-01-30T06:55:26.944Z,9.15
2023-01-30T06:58:09.719Z,8.90
2023-01-30T07:00:40.021Z,8.07
2023-01-30T07:03:15.637Z,9.45
2023-01-30T07:05:45.096Z,10.68
2023-01-30T07:08:12.529Z,8.88
2023-01-30T07:10:41.709Z,8.25
2023-01-30T07:13:08.519Z,8.98
2023-01-30T07:15:35.471Z,8.27
2023-01-30T07:18:02.606Z,8.25
2023-01-30T07:20:31.385Z,7.88
2023-01-30T07:22:58.741Z,7.25
2023-01-30T07:25:28.671Z,6.75
2023-01-30T07:28:01.525Z,7.30
2023-01-30T07:30:32.839Z,6.75
2023-01-30T07:33:00.537Z,6.72
2023-01-30T07:35:31.381Z,6.82
2023-01-30T07:37:58.842Z,6.03
2023-01-30T07:40:26.687Z,6.55
2023-01-30T07:43:07.423Z,6.55
2023-01-30T07:45:47.297Z,5.97
2023-01-30T07:48:17.896Z,5.93
2023-01-30T07:50:46.048Z,5.10
2023-01-30T07:53:16.517Z,5.43
2023-01-30T07:55:43.847Z,4.57
2023-01-30T07:58:17.526Z,5.00
2023-01-30T08:00:44.993Z,4.45
2023-01-30T08:03:14.609Z,4.38
2023-01-30T08:05:41.480Z,4.00
2023-01-30T08:08:08.274Z,4.13
2023-01-30T08:10:35.219Z,4.65
2023-01-30T08:13:02.020Z,4.13
2023-01-30T08:15:31.565Z,3.75
2023-01-30T08:17:58.904Z,3.78
2023-01-30T08:20:27.716Z,3.95
2023-01-30T08:22:54.800Z,3.67
2023-01-30T08:25:22.183Z,3.47
2023-01-30T08:27:49.085Z,3.60
2023-01-30T08:30:16.625Z,3.45
2023-01-30T08:32:44.028Z,3.50
2023-01-30T08:35:11.252Z,3.47
2023-01-30T08:37:40.738Z,3.10
2023-01-30T08:40:09.469Z,2.92
2023-01-30T08:42:36.386Z,3.20
2023-01-30T08:45:03.753Z,3.00
2023-01-30T08:47:31.713Z,3.28
2023-01-30T08:49:58.661Z,3.13
2023-01-30T08:52:25.640Z,2.70
2023-01-30T08:54:52.994Z,2.72
2023-01-30T08:57:20.267Z,2.90
2023-01-30T08:59:47.621Z,3.03
2023-01-30T09:02:14.354Z,3.03
2023-01-30T09:04:41.117Z,3.67
2023-01-30T09:07:08.004Z,2.80
2023-01-30T09:09:35.011Z,3.13
2023-01-30T09:12:01.726Z,2.90
2023-01-30T09:14:28.530Z,2.47
2023-01-30T09:16:57.895Z,2.38
2023-01-30T09:19:28.771Z,2.55
2023-01-30T09:21:56.348Z,2.30
2023-01-30T09:24:26.552Z,2.53
2023-01-30T09:26:54.992Z,2.50
2023-01-30T09:29:22.749Z,2.67
2023-01-30T09:31:49.847Z,2.35
2023-01-30T09:34:16.596Z,2.70
2023-01-30T09:36:44.214Z,2.22
2023-01-30T09:39:11.014Z,2.80
2023-01-30T09:42:06.139Z,2.30
2023-01-30T09:45:17.925Z,2.05
2023-01-30T09:48:21.869Z,2.20
2023-01-30T09:51:44.332Z,1.73
2023-01-30T09:54:22.205Z,1.77
2023-01-30T09:57:21.748Z,2.20
2023-01-30T10:00:11.180Z,1.88
2023-01-30T10:03:10.495Z,2.42
2023-01-30T10:06:05.205Z,1.85
2023-01-30T10:08:40.755Z,1.65
2023-01-30T10:11:50.861Z,2.13
2023-01-30T10:14:50.862Z,1.67
2023-01-30T10:18:05.354Z,1.52
2023-01-30T10:20:41.192Z,1.25
2023-01-30T10:23:33.296Z,1.80
2023-01-30T10:26:26.318Z,1.90
2023-01-30T10:29:08.788Z,1.88
2023-01-30T10:31:55.980Z,1.73
2023-01-30T10:34:33.741Z,1.90
2023-01-30T10:37:10.320Z,1.95
2023-01-30T10:39:57.704Z,2.10
2023-01-30T10:42:39.181Z,2.40
2023-01-30T10:45:21.167Z,1.90
2023-01-30T10:49:04.039Z,2.30
2023-01-30T10:51:59.890Z,2.03
2023-01-30T10:54:42.889Z,1.88
2023-01-30T10:57:44.172Z,2.50
2023-01-30T11:00:40.017Z,2.45
2023-01-30T11:03:22.045Z,2.65
2023-01-30T11:05:56.725Z,1.75
2023-01-30T11:08:33.544Z,1.98
2023-01-30T11:11:01.336Z,2.72
2023-01-30T11:13:33.538Z,2.25
2023-01-30T11:16:07.782Z,2.60
2023-01-30T11:21:43.582Z,2.15
2023-01-30T11:24:17.528Z,2.78
2023-01-30T11:26:48.003Z,2.03
2023-01-30T11:29:32.705Z,2.50
2023-01-30T11:34:44.128Z,3.08
2023-01-30T11:37:27.309Z,2.35
2023-01-30T11:39:54.166Z,2.53
2023-01-30T11:42:31.648Z,2.50
2023-01-30T11:45:16.210Z,2.70
2023-01-30T11:48:07.872Z,2.42
2023-01-30T11:50:45.810Z,3.03
2023-01-30T11:53:39.507Z,2.60
2023-01-30T11:56:20.588Z,2.38
2023-01-30T11:59:00.906Z,2.67
2023-01-30T12:01:31.864Z,2.22
2023-01-30T12:04:00.216Z,2.53
2023-01-30T12:06:35.246Z,2.17
2023-01-30T12:09:03.491Z,2.15
2023-01-30T12:11:42.285Z,1.98
2023-01-30T12:14:26.983Z,1.80
2023-01-30T12:17:21.653Z,2.08
2023-01-30T12:20:33.707Z,1.52
2023-01-30T12:23:33.878Z,2.10
2023-01-30T12:26:27.783Z,1.80
2023-01-30T12:29:19.170Z,2.03
2023-01-30T12:32:15.848Z,2.53
2023-01-30T12:34:47.923Z,2.00
2023-01-30T12:37:30.671Z,2.15
2023-01-30T12:40:47.078Z,2.65
2023-01-30T12:43:28.746Z,2.10
2023-01-30T12:46:38.657Z,1.90
2023-01-30T12:49:45.352Z,2.85
2023-01-30T12:53:02.376Z,1.88
2023-01-30T12:56:26.147Z,2.08
2023-01-30T12:59:17.661Z,2.08
2023-01-30T13:02:21.940Z,2.15
2023-01-30T13:05:22.523Z,1.83
2023-01-30T13:08:18.669Z,2.35
2023-01-30T13:11:22.532Z,2.80
2023-01-30T13:14:21.925Z,2.72
2023-01-30T13:17:18.217Z,2.17
2023-01-30T13:20:04.715Z,2.45
2023-01-30T13:22:57.844Z,1.85
2023-01-30T13:25:40.572Z,1.90
2023-01-30T13:28:16.290Z,1.85
2023-01-30T13:30:45.879Z,2.38
2023-01-30T13:33:24.326Z,2.50
2023-01-30T13:36:06.797Z,1.70
2023-01-30T13:38:41.525Z,2.60
2023-01-30T13:41:13.466Z,2.28
2023-01-30T13:43:51.568Z,2.30
2023-01-30T13:46:26.664Z,1.73
2023-01-30T13:49:39.468Z,2.03
2023-01-30T13:52:33.621Z,2.20
2023-01-30T13:55:13.411Z,2.60
2023-01-30T13:57:50.464Z,2.65
2023-01-30T14:00:20.565Z,2.22
2023-01-30T14:03:06.483Z,2.00
2023-01-30T14:06:05.892Z,1.70
2023-01-30T14:08:46.323Z,2.05
2023-01-30T14:12:00.622Z,2.47
2023-01-30T14:14:40.658Z,1.83
2023-01-30T14:17:14.316Z,1.80
2023-01-30T14:19:45.879Z,1.65
2023-01-30T14:22:35.906Z,1.63
2023-01-30T14:25:30.429Z,1.50
2023-01-30T14:30:44.927Z,1.30
2023-01-30T14:33:51.548Z,1.92
2023-01-30T14:36:21.047Z,1.40
2023-01-30T14:39:17.832Z,1.52
2023-01-30T14:41:44.622Z,1.25
2023-01-30T14:44:11.380Z,0.98
2023-01-30T14:46:54.827Z,1.40
2023-01-30T14:49:28.761Z,1.15
2023-01-30T14:51:56.405Z,1.17
2023-01-30T14:54:41.033Z,1.10
2023-01-30T14:57:23.293Z,1.10
2023-01-30T15:00:16.457Z,0.95
2023-01-30T15:02:55.901Z,0.95
2023-01-30T15:05:27.492Z,1.27
2023-01-30T15:08:02.486Z,1.00
2023-01-30T15:11:04.531Z,1.17
2023-01-30T15:13:57.348Z,0.82
2023-01-30T15:17:14.337Z,1.15
2023-01-30T15:20:07.263Z,1.20
2023-01-30T15:23:11.953Z,1.00
2023-01-30T15:26:08.090Z,1.65
2023-01-30T15:29:24.029Z,1.23
2023-01-30T15:32:14.093Z,1.30
2023-01-30T15:34:52.928Z,1.25
2023-01-30T15:37:46.835Z,1.00
2023-01-30T15:40:16.918Z,1.38
2023-01-30T15:43:21.243Z,1.55
2023-01-30T15:46:21.816Z,1.40
2023-01-30T15:49:06.741Z,1.70
2023-01-30T15:51:34.891Z,1.70
2023-01-30T15:54:10.648Z,1.67
2023-01-30T15:56:40.160Z,1.17
2023-01-30T15:59:08.635Z,1.85
2023-01-30T16:01:35.617Z,1.63
2023-01-30T16:04:07.203Z,2.20
2023-01-30T16:06:36.838Z,1.80
2023-01-30T16:09:19.848Z,1.73
2023-01-30T16:11:46.154Z,1.13
2023-01-30T16:14:15.518Z,1.70
2023-01-30T16:16:55.434Z,1.55
2023-01-30T16:19:32.490Z,1.65
2023-01-30T16:22:18.704Z,1.60
2023-01-30T16:24:53.117Z,2.25
2023-01-30T16:27:40.002Z,2.33
2023-01-30T16:30:08.935Z,2.00
2023-01-30T16:32:36.865Z,2.20
2023-01-30T16:35:28.520Z,2.13
2023-01-30T16:37:57.806Z,2.28
2023-01-30T16:40:44.376Z,2.17
2023-01-30T16:43:29.519Z,2.10
2023-01-30T16:46:52.212Z,2.20
2023-01-30T16:49:35.684Z,2.25
2023-01-30T16:52:33.893Z,2.45
2023-01-30T16:55:07.435Z,2.53
2023-01-30T16:57:42.803Z,2.35
2023-01-30T17:00:27.922Z,2.42
2023-01-30T17:02:58.759Z,2.17
2023-01-30T17:05:36.713Z,2.10
2023-01-30T17:08:04.266Z,2.85
2023-01-30T17:10:40.225Z,2.03
2023-01-30T17:13:41.769Z,2.78
2023-01-30T17:16:34.993Z,3.20
2023-01-30T17:19:02.246Z,2.20
2023-01-30T17:21:49.221Z,2.20
2023-01-30T17:24:22.766Z,2.47
2023-01-30T17:26:54.457Z,2.85
2023-01-30T17:29:41.460Z,2.30
2023-01-30T17:32:13.360Z,1.90
2023-01-30T17:34:41.315Z,1.90
2023-01-30T17:37:21.293Z,2.08
2023-01-30T17:39:49.211Z,2.13
2023-01-30T17:42:22.158Z,2.63
2023-01-30T17:44:49.510Z,2.05
2023-01-30T17:47:16.292Z,2.50
2023-01-30T17:49:43.445Z,2.25
2023-01-30T17:52:13.642Z,2.65
2023-01-30T17:54:40.489Z,2.50
2023-01-30T17:57:10.543Z,2.22
2023-01-30T17:59:37.290Z,2.78
2023-01-30T18:02:05.297Z,2.83
2023-01-30T18:04:32.068Z,2.22
2023-01-30T18:07:06.408Z,3.00
2023-01-30T18:09:33.335Z,2.72
2023-01-30T18:12:00.182Z,2.92
2023-01-30T18:14:27.330Z,2.33
2023-01-30T18:16:59.997Z,3.03
2023-01-30T18:19:29.040Z,3.13
2023-01-30T18:21:58.471Z,3.20
2023-01-30T18:24:25.653Z,2.97
2023-01-30T18:26:52.784Z,2.92
2023-01-30T18:29:19.604Z,3.58
2023-01-30T18:31:46.678Z,3.08
2023-01-30T18:34:13.544Z,3.28
2023-01-30T18:36:40.398Z,3.97
2023-01-30T18:39:07.320Z,3.28
2023-01-30T18:41:35.348Z,3.15
2023-01-30T18:44:05.579Z,3.72
2023-01-30T18:46:33.553Z,3.25
2023-01-30T18:49:00.538Z,3.53
2023-01-30T18:51:34.122Z,3.97
2023-01-30T18:54:01.500Z,2.92
2023-01-30T18:56:31.871Z,4.10
2023-01-30T18:59:03.235Z,3.63
2023-01-30T19:01:38.891Z,3.67
2023-01-30T19:04:08.990Z,3.03
2023-01-30T19:06:42.595Z,3.78
2023-01-30T19:09:14.565Z,3.70
2023-01-30T19:11:59.804Z,3.42
2023-01-30T19:14:26.730Z,3.40
2023-01-30T19:16:54.541Z,3.22
2023-01-30T19:19:21.533Z,4.30
2023-01-30T19:21:49.764Z,3.40
2023-01-30T19:24:17.825Z,3.58
2023-01-30T19:26:44.941Z,4.85
2023-01-30T19:29:11.805Z,3.35
2023-01-30T19:31:39.015Z,3.42
2023-01-30T19:34:06.391Z,3.83
2023-01-30T19:36:34.884Z,3.20
2023-01-30T19:39:04.274Z,3.45
2023-01-30T19:41:34.868Z,3.05
2023-01-30T19:44:05.404Z,3.47
2023-01-30T19:46:32.776Z,3.38
2023-01-30T19:48:59.653Z,3.20
2023-01-30T19:51:29.925Z,3.58
2023-01-30T19:54:04.875Z,4.10
2023-01-30T19:56:34.060Z,3.90
2023-01-30T19:59:02.262Z,3.60
2023-01-30T20:01:32.964Z,3.50
2023-01-30T20:04:01.771Z,3.65
2023-01-30T20:06:32.460Z,3.38
2023-01-30T20:09:11.213Z,3.65
2023-01-30T20:11:40.861Z,3.58
2023-01-30T20:14:10.587Z,3.63
2023-01-30T20:16:37.781Z,3.00
2023-01-30T20:19:17.244Z,3.33
2023-01-30T20:21:45.502Z,3.80
2023-01-30T20:24:14.979Z,3.75
2023-01-30T20:26:42.895Z,3.83
2023-01-30T20:29:10.796Z,4.22
2023-01-30T20:31:39.151Z,3.97
2023-01-30T20:34:10.707Z,4.88
2023-01-30T20:36:37.683Z,3.45
2023-01-30T20:39:06.498Z,3.28
2023-01-30T20:41:35.663Z,3.08
2023-01-30T20:44:04.927Z,3.50
2023-01-30T20:46:40.992Z,3.50
2023-01-30T20:49:17.416Z,3.47
2023-01-30T20:51:45.831Z,3.17
2023-01-30T20:54:15.378Z,3.05
2023-01-30T20:56:45.637Z,3.33
2023-01-30T20:59:27.183Z,3.13
2023-01-30T21:01:54.434Z,3.17
2023-01-30T21:04:24.250Z,3.20
2023-01-30T21:06:51.275Z,3.00
2023-01-30T21:09:23.912Z,3.50
2023-01-30T21:11:53.100Z,2.80
2023-01-30T21:14:20.013Z,3.35
2023-01-30T21:16:47.873Z,2.90
2023-01-30T21:19:17.370Z,2.75
2023-01-30T21:21:50.268Z,3.33
2023-01-30T21:24:28.265Z,2.38
2023-01-30T21:26:56.573Z,2.85
2023-01-30T21:29:26.772Z,2.97
2023-01-30T21:31:55.530Z,2.78
2023-01-30T21:34:23.209Z,3.03
2023-01-30T21:37:08.526Z,2.17
2023-01-30T21:39:53.799Z,2.58
2023-01-30T21:42:39.220Z,2.47
2023-01-30T21:45:06.936Z,2.50
2023-01-30T21:47:33.757Z,2.88
2023-01-30T21:50:00.531Z,2.78
2023-01-30T21:52:27.285Z,2.60
2023-01-30T21:54:54.031Z,1.77
2023-01-30T21:57:20.839Z,2.75
2023-01-30T21:59:47.578Z,2.53
2023-01-30T22:02:14.348Z,3.03
2023-01-30T22:04:41.379Z,2.78
2023-01-30T22:07:08.206Z,2.25
2023-01-30T22:09:34.948Z,2.97
2023-01-30T22:12:01.818Z,2.30
2023-01-30T22:14:28.876Z,2.92
2023-01-30T22:16:55.650Z,2.88
2023-01-30T22:19:22.409Z,2.80
2023-01-30T22:21:49.204Z,2.03
2023-01-30T22:24:16.207Z,2.67
2023-01-30T22:26:43.602Z,3.10
2023-01-30T22:29:10.562Z,2.83
2023-01-30T22:31:40.554Z,2.70
2023-01-30T22:34:07.826Z,2.35
2023-01-30T22:36:35.296Z,2.33
2023-01-30T22:39:03.682Z,2.25
2023-01-30T22:41:36.268Z,3.20
2023-01-30T22:44:05.199Z,2.33
2023-01-30T22:46:36.279Z,1.88
2023-01-30T22:49:06.185Z,2.70
2023-01-30T22:51:43.473Z,2.92
2023-01-30T22:54:17.927Z,3.28
2023-01-30T22:56:48.612Z,2.53
2023-01-30T22:59:15.617Z,2.53
2023-01-30T23:01:45.950Z,2.60
2023-01-30T23:04:16.522Z,2.58
2023-01-30T23:06:44.554Z,2.88
2023-01-30T23:09:17.653Z,3.22
2023-01-30T23:12:12.913Z,3.53
2023-01-30T23:14:40.554Z,3.15
2023-01-30T23:17:26.737Z,2.22
2023-01-30T23:19:54.695Z,3.10
2023-01-30T23:22:21.853Z,3.05
2023-01-30T23:24:48.825Z,2.90
2023-01-30T23:27:15.856Z,3.10
2023-01-30T23:29:43.168Z,3.00
2023-01-30T23:32:10.162Z,3.03
2023-01-30T23:34:36.996Z,3.35
2023-01-30T23:37:03.905Z,3.95
2023-01-30T23:39:30.682Z,2.53
2023-01-30T23:41:57.615Z,2.95
2023-01-30T23:44:24.376Z,3.35
2023-01-30T23:46:51.143Z,3.10
2023-01-30T23:49:18.122Z,2.75
2023-01-30T23:51:45.905Z,2.90
2023-01-30T23:54:14.137Z,2.85
2023-01-30T23:56:44.781Z,2.30
2023-01-30T23:59:12.586Z,2.78
